Alpine Meadows, California
Current Conditions -  °F | °C
As of 4:45 PM on Saturday 25 Oct 2014 (Local Time) from KTRK Reporting Station
Broken Clouds Broken Clouds  
Wind Chill: 38°   Ceiling: 3100
Heat Index: 45°   Visibility: 10mi
Dew Point: 36°   Wind: 13mph
Humidity: 71%   Direction: 160°SSE
Pressure: 30.13"   Gusts: 16mph
Location:  39.16°N, 120.24°W
Report Text: KTRK 252345Z 16011G14KT 10SM BKN031 BKN043 07/02 A3013 RMK NOSPECI 10070
Loading
Personal Weather Stations






























Interactive Weather Map New forecast layout! Learn more

10-Day Weather Forecast

Advertisements
Track Severe Weather on mobile